Time;durP1;ratioP1;P1;durP2;ratioP2;P2;SDS_P1;SDS_P2;PMS_P1;PMS_P2;Temp;Humidity;BMP_temperature;BMP_pressure;BME280_temperature;BME280_humidity;BME280_pressure;Samples;Min_cycle;Max_cycle;Signal;HPM_P1;HPM_P2
2023/10/20 00:00:14;;;;;;;17.15;12.55;;;;;;;17.48;64.72;98173.50;696150;28;1165;-86
2023/10/20 00:00:35;;;;;;;14.73;12.32;;;;;;;17.51;64.46;98174.22;693314;28;1325;-87
2023/10/20 00:00:55;;;;;;;15.10;12.27;;;;;;;17.51;64.56;98163.69;693175;28;921;-86
2023/10/20 00:01:16;;;;;;;14.30;11.40;;;;;;;17.59;64.39;98181.81;688184;28;1287;-86
2023/10/20 00:01:37;;;;;;;14.05;10.80;;;;;;;17.57;64.44;98180.16;693024;28;1086;-87
2023/10/20 00:01:57;;;;;;;13.75;11.00;;;;;;;17.55;64.48;98174.97;693305;28;977;-86
2023/10/20 00:02:18;;;;;;;14.93;11.73;;;;;;;17.59;64.15;98176.56;696169;28;1124;-87
2023/10/20 00:02:38;;;;;;;15.38;12.15;;;;;;;17.58;64.25;98174.81;692713;28;1251;-85
2023/10/20 00:02:59;;;;;;;16.25;11.90;;;;;;;17.56;64.18;98171.38;692558;28;1223;-86
2023/10/20 00:03:20;;;;;;;16.05;11.23;;;;;;;17.59;64.12;98173.03;690603;28;1413;-86
2023/10/20 00:03:41;;;;;;;16.60;11.37;;;;;;;17.53;64.32;98161.81;693038;28;1216;-86
2023/10/20 00:04:03;;;;;;;18.60;12.10;;;;;;;17.59;64.17;98165.13;690479;28;1385;-87
2023/10/20 00:04:24;;;;;;;18.75;12.50;;;;;;;17.59;64.26;98166.00;690526;28;1216;-87
2023/10/20 00:04:44;;;;;;;17.55;12.60;;;;;;;17.60;64.29;98169.47;693039;28;1328;-86
2023/10/20 00:05:05;;;;;;;13.45;11.82;;;;;;;17.54;64.45;98168.81;692926;28;1207;-85
2023/10/20 00:05:26;;;;;;;14.73;12.27;;;;;;;17.51;64.38;98168.09;691837;28;1510;-86
2023/10/20 00:05:47;;;;;;;16.35;12.85;;;;;;;17.56;64.39;98175.81;687126;28;1229;-85
2023/10/20 00:06:08;;;;;;;17.88;12.98;;;;;;;17.48;64.60;98158.56;695171;28;1291;-85
2023/10/20 00:06:29;;;;;;;15.55;12.32;;;;;;;17.48;64.57;98163.81;697751;28;1368;-85
2023/10/20 00:06:50;;;;;;;14.65;11.68;;;;;;;17.50;64.49;98155.81;695280;28;1373;-86
2023/10/20 00:07:11;;;;;;;13.90;11.10;;;;;;;17.56;64.55;98170.56;690516;28;1081;-85
2023/10/20 00:07:32;;;;;;;12.73;10.82;;;;;;;17.51;64.42;98152.25;698059;28;1332;-86
2023/10/20 00:07:53;;;;;;;13.60;10.82;;;;;;;17.48;64.50;98153.28;698229;28;1136;-86
2023/10/20 00:08:14;;;;;;;13.18;11.15;;;;;;;17.54;64.55;98168.81;700938;28;1926;-87
2023/10/20 00:08:35;;;;;;;13.30;11.10;;;;;;;17.49;64.53;98164.66;693235;28;1299;-85
2023/10/20 00:08:56;;;;;;;13.82;11.63;;;;;;;17.52;64.49;98160.13;698686;28;872;-86
2023/10/20 00:09:18;;;;;;;16.05;12.10;;;;;;;17.49;64.50;98155.00;697588;28;1046;-86
2023/10/20 00:09:39;;;;;;;19.45;13.13;;;;;;;17.50;64.61;98156.69;695543;28;1375;-85
2023/10/20 00:10:00;;;;;;;17.77;11.73;;;;;;;17.48;64.61;98160.31;695894;28;1663;-86
2023/10/20 00:10:21;;;;;;;17.13;11.93;;;;;;;17.51;64.64;98162.81;690414;28;996;-86
2023/10/20 00:10:42;;;;;;;16.10;11.60;;;;;;;17.50;64.65;98159.34;690355;28;985;-87
2023/10/20 00:11:04;;;;;;;17.53;12.40;;;;;;;17.54;64.63;98168.81;693096;28;1113;-86
2023/10/20 00:11:25;;;;;;;17.35;12.82;;;;;;;17.53;64.57;98163.63;690168;28;1023;-86
2023/10/20 00:11:47;;;;;;;15.77;12.13;;;;;;;17.51;64.60;98153.13;693061;28;1107;-86
2023/10/20 00:12:10;;;;;;;14.65;12.27;;;;;;;17.51;64.56;98153.13;693143;28;1287;-86
2023/10/20 00:12:31;;;;;;;15.23;12.15;;;;;;;17.52;64.55;98152.22;689862;28;1282;-86
2023/10/20 00:12:52;;;;;;;16.77;12.88;;;;;;;17.56;64.58;98154.72;693063;28;1149;-86
2023/10/20 00:13:12;;;;;;;16.40;12.70;;;;;;;17.53;64.58;98153.09;690118;28;1467;-86
2023/10/20 00:13:33;;;;;;;17.07;12.77;;;;;;;17.52;64.53;98148.72;690432;28;1114;-85
2023/10/20 00:13:54;;;;;;;15.63;12.32;;;;;;;17.50;64.66;98155.81;690321;28;1264;-86
2023/10/20 00:14:14;;;;;;;15.68;12.40;;;;;;;17.51;64.51;98158.41;690691;28;1176;-86
2023/10/20 00:14:35;;;;;;;20.42;12.23;;;;;;;17.52;64.58;98154.84;692535;28;1248;-86
2023/10/20 00:14:56;;;;;;;19.83;11.73;;;;;;;17.50;64.61;98146.16;698745;28;1059;-86
2023/10/20 00:15:17;;;;;;;20.25;11.90;;;;;;;17.53;64.69;98155.72;695205;28;1045;-87
2023/10/20 00:15:38;;;;;;;15.15;12.00;;;;;;;17.53;64.59;98156.56;693074;28;1326;-86
2023/10/20 00:15:59;;;;;;;15.63;12.57;;;;;;;17.53;64.48;98161.00;696034;28;1165;-87
2023/10/20 00:16:24;;;;;;;15.50;12.68;;;;;;;17.54;64.46;98168.81;693064;28;1355;-87
2023/10/20 00:16:45;;;;;;;16.25;12.70;;;;;;;17.48;64.63;98153.28;696472;28;965;-86
2023/10/20 00:17:06;;;;;;;16.25;12.80;;;;;;;17.48;64.76;98163.81;692762;28;1331;-87
2023/10/20 00:17:27;;;;;;;16.48;12.60;;;;;;;17.49;64.93;98157.63;693014;28;1190;-86
2023/10/20 00:17:47;;;;;;;16.20;12.60;;;;;;;17.51;64.54;98153.13;695835;28;938;-86
2023/10/20 00:18:08;;;;;;;16.13;12.18;;;;;;;17.51;64.69;98158.41;693315;28;1264;-87
2023/10/20 00:18:30;;;;;;;14.68;11.95;;;;;;;17.53;64.73;98155.72;695530;28;1500;-86
2023/10/20 00:18:52;;;;;;;13.30;11.68;;;;;;;17.53;64.67;98159.19;692976;28;1241;-86
2023/10/20 00:19:12;;;;;;;14.17;11.93;;;;;;;17.53;64.63;98155.72;693006;28;1086;-85
2023/10/20 00:19:33;;;;;;;13.40;11.80;;;;;;;17.51;64.52;98153.13;690530;28;1185;-86
2023/10/20 00:19:54;;;;;;;14.88;11.63;;;;;;;17.51;64.61;98152.25;695701;28;1557;-86
2023/10/20 00:20:14;;;;;;;15.35;11.70;;;;;;;17.55;64.53;98153.88;692969;28;1246;-87
2023/10/20 00:20:35;;;;;;;20.40;12.35;;;;;;;17.53;64.48;98159.19;698523;28;1341;-86
2023/10/20 00:20:56;;;;;;;21.55;12.68;;;;;;;17.58;64.41;98152.88;692649;28;1270;-86
2023/10/20 00:21:18;;;;;;;20.67;12.50;;;;;;;17.54;64.57;98147.72;695914;28;1281;-86
2023/10/20 00:21:39;;;;;;;16.70;12.60;;;;;;;17.53;64.54;98151.28;695283;28;1227;-87
2023/10/20 00:22:00;;;;;;;14.23;12.30;;;;;;;17.53;64.51;98148.66;690038;28;1149;-87
2023/10/20 00:22:21;;;;;;;13.77;12.00;;;;;;;17.52;64.65;98143.47;696164;28;1211;-86
2023/10/20 00:22:45;;;;;;;14.05;11.05;;;;;;;17.56;64.71;98154.72;689559;28;1209;-86
2023/10/20 00:23:06;;;;;;;13.00;9.82;;;;;;;17.53;64.52;98151.28;693211;28;1207;-86
2023/10/20 00:23:27;;;;;;;15.05;10.25;;;;;;;17.60;64.48;98156.31;694741;28;1314;-87
2023/10/20 00:23:47;;;;;;;16.63;11.45;;;;;;;17.54;64.34;98147.72;692881;28;1152;-87
2023/10/20 00:24:08;;;;;;;17.27;12.45;;;;;;;17.59;64.41;98155.47;690518;28;1202;-87
2023/10/20 00:24:29;;;;;;;15.85;11.98;;;;;;;17.56;64.40;98149.47;689775;28;1333;-87
2023/10/20 00:24:50;;;;;;;13.48;10.98;;;;;;;17.62;64.42;98149.19;690494;28;1182;-86
2023/10/20 00:25:11;;;;;;;13.35;10.75;;;;;;;17.64;64.36;98142.06;693230;28;1200;-86
2023/10/20 00:25:31;;;;;;;12.63;10.77;;;;;;;17.66;64.20;98148.13;695915;28;1023;-86
2023/10/20 00:25:52;;;;;;;13.35;11.27;;;;;;;17.68;64.25;98154.19;695840;28;1023;-86
2023/10/20 00:26:13;;;;;;;15.23;11.67;;;;;;;17.70;64.20;98154.97;695364;28;1396;-86
2023/10/20 00:26:34;;;;;;;17.90;12.38;;;;;;;17.67;64.22;98153.34;690061;28;1269;-87
2023/10/20 00:26:54;;;;;;;17.10;11.63;;;;;;;17.69;64.34;98155.91;692486;28;1186;-87
2023/10/20 00:27:16;;;;;;;16.80;11.73;;;;;;;17.69;64.07;98150.63;693026;28;1211;-87
2023/10/20 00:27:41;;;;;;;16.23;11.73;;;;;;;17.74;64.07;98153.06;690380;28;1152;-87
2023/10/20 00:28:01;;;;;;;16.00;12.20;;;;;;;17.69;64.22;98150.63;695162;28;1257;-87
2023/10/20 00:28:22;;;;;;;14.23;11.10;;;;;;;17.66;63.96;98141.06;694070;28;1980;-87
2023/10/20 00:28:43;;;;;;;14.25;11.45;;;;;;;17.71;64.12;98147.94;690160;28;1235;-87
2023/10/20 00:29:03;;;;;;;16.77;12.13;;;;;;;17.67;64.05;98153.34;693281;28;1306;-86
2023/10/20 00:29:25;;;;;;;18.75;12.80;;;;;;;17.77;64.08;98152.94;695356;28;1078;-86
2023/10/20 00:29:45;;;;;;;19.92;12.68;;;;;;;17.71;64.12;98143.53;690276;28;1013;-86
2023/10/20 00:30:10;;;;;;;23.88;12.55;;;;;;;17.72;64.07;98142.59;690155;28;1307;-86
2023/10/20 00:30:30;;;;;;;22.80;12.52;;;;;;;17.64;64.17;98131.53;698404;28;1332;-87
2023/10/20 00:30:52;;;;;;;22.25;12.80;;;;;;;17.63;64.20;98138.56;698485;28;1427;-87
2023/10/20 00:31:12;;;;;;;14.57;11.90;;;;;;;17.63;64.09;98135.06;695761;28;1426;-86
2023/10/20 00:31:33;;;;;;;15.15;11.20;;;;;;;17.64;64.49;98145.56;690203;28;1177;-87
2023/10/20 00:31:54;;;;;;;13.97;10.10;;;;;;;17.63;64.16;98133.28;695812;28;1455;-87
2023/10/20 00:32:15;;;;;;;14.57;10.07;;;;;;;17.67;64.22;98139.28;698736;28;1048;-88
2023/10/20 00:32:39;;;;;;;11.20;9.38;;;;;;;17.67;64.11;98144.56;696902;28;1285;-86
2023/10/20 00:33:01;;;;;;;10.70;9.45;;;;;;;17.71;64.06;98137.38;698571;28;1295;-86
2023/10/20 00:33:21;;;;;;;10.65;9.57;;;;;;;17.71;64.14;98145.28;697100;28;1093;-87
2023/10/20 00:33:42;;;;;;;11.02;9.90;;;;;;;17.70;64.14;98141.78;692530;28;1298;-87
2023/10/20 00:34:03;;;;;;;11.83;10.10;;;;;;;17.70;63.88;98147.06;693218;28;1162;-87
2023/10/20 00:34:23;;;;;;;13.77;11.20;;;;;;;17.66;64.30;98142.84;695562;28;1222;-87
2023/10/20 00:34:44;;;;;;;15.50;11.77;;;;;;;17.61;64.12;98132.50;692996;28;1212;-86
2023/10/20 00:35:05;;;;;;;17.65;12.75;;;;;;;17.67;64.10;98136.66;687763;28;1364;-86
2023/10/20 00:35:25;;;;;;;16.57;12.30;;;;;;;17.72;64.05;98141.72;698527;28;1170;-87
2023/10/20 00:35:46;;;;;;;15.10;11.95;;;;;;;17.70;63.97;98139.16;698490;28;1224;-86
2023/10/20 00:38:44;;;;;;;18.45;12.07;;;;;;;17.74;64.09;98148.66;698596;28;676;-86
2023/10/20 00:39:06;;;;;;;12.05;10.20;;;;;;;17.73;64.03;98138.16;700659;28;1431;-87
2023/10/20 00:39:26;;;;;;;12.65;10.15;;;;;;;17.67;64.29;98140.16;699427;28;1359;-87
2023/10/20 00:39:48;;;;;;;13.60;10.57;;;;;;;17.67;64.16;98131.38;692962;28;1192;-86
2023/10/20 00:40:11;;;;;;;13.63;10.93;;;;;;;17.66;64.26;98140.22;693135;28;1102;-90
2023/10/20 00:40:32;;;;;;;13.18;11.05;;;;;;;17.62;64.23;98142.13;695891;28;1416;-87
2023/10/20 00:40:52;;;;;;;11.32;10.13;;;;;;;17.63;64.30;98143.84;695036;28;1325;-87
2023/10/20 00:41:13;;;;;;;10.90;9.40;;;;;;;17.63;64.15;98148.25;693238;28;1272;-86
2023/10/20 00:41:35;;;;;;;12.40;9.95;;;;;;;17.65;64.38;98141.16;693080;28;1133;-87
2023/10/20 00:41:56;;;;;;;14.82;10.52;;;;;;;17.62;64.43;98138.63;690419;28;1564;-86
2023/10/20 00:42:17;;;;;;;16.20;11.70;;;;;;;17.61;64.19;98137.78;695756;28;1295;-87
2023/10/20 00:42:38;;;;;;;14.00;11.43;;;;;;;17.67;64.40;98148.06;694773;28;1367;-86
2023/10/20 00:43:00;;;;;;;14.38;11.10;;;;;;;17.64;64.35;98134.16;693187;28;1315;-87
2023/10/20 00:43:20;;;;;;;14.18;10.63;;;;;;;17.64;64.33;98136.81;693969;28;1353;-86
2023/10/20 00:43:41;;;;;;;16.40;11.50;;;;;;;17.67;64.43;98147.19;695063;28;1305;-86
2023/10/20 00:44:03;;;;;;;14.75;11.23;;;;;;;17.68;64.37;98146.28;693276;28;1153;-86
2023/10/20 00:44:23;;;;;;;16.42;11.80;;;;;;;17.66;64.26;98134.94;693024;28;1545;-87
2023/10/20 00:44:44;;;;;;;15.50;11.38;;;;;;;17.61;64.42;98134.28;692572;28;1168;-87
2023/10/20 00:45:08;;;;;;;16.35;11.35;;;;;;;17.66;64.37;98142.84;690580;28;1150;-86
2023/10/20 00:45:29;;;;;;;14.77;11.45;;;;;;;17.68;64.28;98146.28;692427;28;1227;-86
2023/10/20 00:45:49;;;;;;;12.98;11.57;;;;;;;17.66;64.35;98141.06;693092;28;944;-86
2023/10/20 00:46:10;;;;;;;14.65;11.90;;;;;;;17.65;64.23;98138.50;690295;28;1314;-88
2023/10/20 00:46:31;;;;;;;13.32;11.50;;;;;;;17.65;64.57;98138.50;695563;28;1326;-86
2023/10/20 00:46:53;;;;;;;17.75;11.40;;;;;;;17.65;64.47;98138.50;695235;28;1230;-87
2023/10/20 00:47:14;;;;;;;16.83;11.15;;;;;;;17.67;64.50;98132.25;695862;28;1051;-87
2023/10/20 00:47:37;;;;;;;17.25;11.65;;;;;;;17.69;64.38;98142.72;695584;28;1298;-87
2023/10/20 00:47:58;;;;;;;15.05;11.35;;;;;;;17.66;64.31;98138.41;690560;28;1330;-86
2023/10/20 00:48:20;;;;;;;16.02;11.20;;;;;;;17.68;64.39;98138.38;690010;28;1931;-87
2023/10/20 00:48:42;;;;;;;16.33;11.20;;;;;;;17.68;64.43;98141.88;692137;28;1269;-87
2023/10/20 00:49:03;;;;;;;16.55;11.82;;;;;;;17.71;63.99;98137.38;698010;28;1180;-87
2023/10/20 00:49:24;;;;;;;17.48;12.07;;;;;;;17.68;64.28;98138.38;697159;28;1223;-87
2023/10/20 00:49:45;;;;;;;15.70;11.50;;;;;;;17.67;64.38;98136.66;692984;28;1230;-85
2023/10/20 00:50:13;;;;;;;15.40;11.00;;;;;;;17.66;64.43;98134.94;692768;28;1398;-87
2023/10/20 00:50:34;;;;;;;12.50;9.95;;;;;;;17.72;64.14;98133.81;690431;28;843;-86
2023/10/20 00:50:55;;;;;;;12.82;9.98;;;;;;;17.74;64.52;98137.22;690365;28;1056;-86
2023/10/20 00:51:17;;;;;;;14.87;10.23;;;;;;;17.68;64.18;98127.81;684519;28;1242;-88
2023/10/20 00:51:39;;;;;;;16.13;11.55;;;;;;;17.65;64.15;98128.81;690140;28;1382;-86
2023/10/20 00:52:00;;;;;;;17.60;11.80;;;;;;;17.70;64.13;98133.03;690456;28;1362;-86
2023/10/20 00:52:22;;;;;;;15.88;11.75;;;;;;;17.68;64.29;98127.81;693093;28;1223;-86
2023/10/20 00:52:49;;;;;;;16.98;11.00;;;;;;;17.68;64.38;98127.81;692913;28;1383;-86
2023/10/20 00:53:10;;;;;;;15.43;11.02;;;;;;;17.70;64.42;98130.41;690449;28;1530;-85
2023/10/20 00:53:32;;;;;;;17.80;11.90;;;;;;;17.67;64.39;98120.84;695159;28;1321;-86
2023/10/20 00:53:53;;;;;;;18.08;12.27;;;;;;;17.69;64.34;98126.88;692952;28;1059;-86
2023/10/20 00:54:15;;;;;;;17.55;12.13;;;;;;;17.74;64.32;98127.56;692815;28;1441;-85
2023/10/20 00:54:36;;;;;;;14.80;11.20;;;;;;;17.71;64.41;98130.34;689573;28;1324;-86
2023/10/20 00:54:57;;;;;;;16.23;11.23;;;;;;;17.69;64.38;98126.88;693021;28;1325;-87
2023/10/20 00:55:20;;;;;;;17.20;11.85;;;;;;;17.68;64.46;98122.53;692909;28;1172;-87
2023/10/20 00:55:41;;;;;;;16.25;12.43;;;;;;;17.68;64.39;98117.28;695630;28;1204;-86
2023/10/20 00:59:38;;;;;;;12.82;11.38;;;;;;;17.71;64.36;98127.69;701577;28;1049;-86
2023/10/20 00:59:59;;;;;;;14.80;11.83;;;;;;;17.70;64.47;98122.47;698610;28;1250;-87
2023/10/20 01:00:20;;;;;;;16.50;12.07;;;;;;;17.71;64.33;98127.69;692132;28;1212;-86
2023/10/20 01:00:42;;;;;;;16.13;11.82;;;;;;;17.66;64.44;98113.84;693019;28;1216;-86
2023/10/20 01:01:04;;;;;;;14.50;11.15;;;;;;;17.68;64.51;98119.91;693251;28;1253;-86
2023/10/20 01:01:24;;;;;;;14.27;10.57;;;;;;;17.69;64.44;98126.88;689855;28;1342;-87
2023/10/20 01:01:45;;;;;;;13.57;10.10;;;;;;;17.69;64.53;98129.53;692842;28;1140;-86
2023/10/20 01:02:05;;;;;;;12.80;10.05;;;;;;;17.70;64.36;98119.84;695914;28;1163;-86
2023/10/20 01:02:29;;;;;;;11.50;10.13;;;;;;;17.71;64.29;98122.44;696390;28;1315;-86
2023/10/20 01:02:53;;;;;;;11.68;9.73;;;;;;;17.75;64.46;98129.25;692379;28;1291;-86
2023/10/20 01:03:14;;;;;;;13.88;10.35;;;;;;;17.72;64.45;98118.00;690131;28;1740;-85
2023/10/20 01:03:35;;;;;;;14.75;11.10;;;;;;;17.69;64.32;98113.69;695897;28;1092;-86
2023/10/20 01:03:56;;;;;;;15.25;11.77;;;;;;;17.71;64.41;98116.28;693020;28;1238;-86
2023/10/20 01:04:40;;;;;;;20.67;11.47;;;;;;;17.76;64.37;98124.84;690470;28;890;-86
2023/10/20 01:05:01;;;;;;;22.20;11.50;;;;;;;17.72;64.36;98121.50;690368;28;1222;-87
2023/10/20 01:05:26;;;;;;;16.30;12.05;;;;;;;17.75;64.49;98117.84;696236;28;1167;-87
2023/10/20 01:05:51;;;;;;;13.63;11.90;;;;;;;17.75;64.42;98118.72;695698;28;1164;-87
2023/10/20 01:06:12;;;;;;;13.98;11.85;;;;;;;17.75;64.10;98116.06;698596;28;1139;-86
2023/10/20 01:06:36;;;;;;;13.63;11.43;;;;;;;17.79;64.13;98124.72;692999;28;1308;-86
2023/10/20 01:06:56;;;;;;;13.85;11.40;;;;;;;17.76;64.25;98114.31;690034;28;1215;-86
2023/10/20 01:07:17;;;;;;;13.80;11.47;;;;;;;17.77;64.10;98119.50;698579;28;1058;-87
2023/10/20 01:07:38;;;;;;;13.05;11.05;;;;;;;17.80;63.97;98114.09;692841;28;1218;-86
2023/10/20 01:09:34;;;;;;;13.25;11.15;;;;;;;17.73;64.18;98101.25;700601;28;1316;-86
2023/10/20 01:09:59;;;;;;;13.48;11.20;;;;;;;17.76;64.32;98109.88;700283;28;1350;-86
2023/10/20 01:10:21;;;;;;;12.40;10.52;;;;;;;17.72;64.37;98096.91;696695;28;1235;-86
2023/10/20 01:10:42;;;;;;;12.13;10.80;;;;;;;17.73;64.35;98093.31;695703;28;1273;-86
2023/10/20 01:11:03;;;;;;;14.27;11.20;;;;;;;17.70;64.53;98099.59;693167;28;1114;-87
2023/10/20 01:11:24;;;;;;;15.57;11.95;;;;;;;17.73;64.39;98104.75;695648;28;1343;-86
2023/10/20 01:11:45;;;;;;;15.38;11.70;;;;;;;17.68;64.28;98086.50;692661;28;972;-86
2023/10/20 01:12:06;;;;;;;16.05;12.38;;;;;;;17.71;64.38;98085.50;695903;28;1370;-86
2023/10/20 01:12:26;;;;;;;15.68;12.77;;;;;;;17.74;64.28;98092.41;699422;28;1462;-86
2023/10/20 01:12:48;;;;;;;16.38;12.82;;;;;;;17.73;64.36;98094.19;690095;28;1331;-86
2023/10/20 01:13:08;;;;;;;12.95;11.52;;;;;;;17.77;64.40;98100.19;690571;28;1068;-87
2023/10/20 01:13:30;;;;;;;12.95;10.95;;;;;;;17.74;64.30;98090.63;687460;28;1188;-86
2023/10/20 01:13:51;;;;;;;15.30;11.50;;;;;;;17.75;64.37;98091.47;689436;28;1264;-86
2023/10/20 01:14:11;;;;;;;17.13;12.13;;;;;;;17.73;64.37;98088.94;687690;28;1278;-86
2023/10/20 01:14:32;;;;;;;16.80;12.00;;;;;;;17.75;64.41;98089.72;689974;28;1109;-86
2023/10/20 01:14:53;;;;;;;14.98;11.55;;;;;;;17.75;64.55;98089.72;692673;28;1135;-86
2023/10/20 01:15:15;;;;;;;14.50;11.55;;;;;;;17.73;64.49;98080.16;690333;28;1160;-87
2023/10/20 01:15:37;;;;;;;16.00;11.70;;;;;;;17.79;64.26;98091.28;690098;28;1366;-87
2023/10/20 01:15:57;;;;;;;14.38;11.60;;;;;;;17.78;64.21;98092.19;690532;28;854;-86
2023/10/20 01:16:18;;;;;;;13.50;11.00;;;;;;;17.76;64.23;98087.94;687502;28;1124;-86
2023/10/20 01:16:40;;;;;;;12.40;11.10;;;;;;;17.72;64.56;98081.94;690231;28;1229;-85
2023/10/20 01:17:01;;;;;;;13.23;11.30;;;;;;;17.73;64.46;98086.28;697500;28;1251;-86
2023/10/20 01:17:22;;;;;;;15.20;11.43;;;;;;;17.73;64.34;98077.50;700778;28;1235;-85
2023/10/20 01:17:42;;;;;;;14.87;11.20;;;;;;;17.75;64.23;98075.66;690148;28;1206;-86
2023/10/20 01:18:04;;;;;;;15.65;11.45;;;;;;;17.79;64.48;98088.66;693251;28;1252;-85
2023/10/20 01:18:25;;;;;;;17.50;12.23;;;;;;;17.78;64.24;98084.28;691505;28;1266;-86
2023/10/20 01:18:45;;;;;;;17.90;12.10;;;;;;;17.72;64.19;98079.31;693730;28;1081;-86
2023/10/20 01:19:06;;;;;;;16.37;12.03;;;;;;;17.70;64.38;98067.94;695507;28;1158;-85
2023/10/20 01:19:27;;;;;;;14.95;11.80;;;;;;;17.76;64.26;98078.22;699034;28;1702;-86
2023/10/20 01:19:47;;;;;;;14.05;11.25;;;;;;;17.74;64.44;98071.31;695107;28;1272;-86
2023/10/20 01:20:09;;;;;;;14.10;11.10;;;;;;;17.74;64.28;98074.81;695956;28;980;-86
2023/10/20 01:20:30;;;;;;;15.02;11.05;;;;;;;17.73;64.33;98066.97;695102;28;1227;-86
2023/10/20 01:20:50;;;;;;;15.30;11.68;;;;;;;17.75;64.37;98068.59;689218;28;945;-85
2023/10/20 01:21:11;;;;;;;15.37;11.90;;;;;;;17.75;64.39;98071.25;695836;28;1129;-85
2023/10/20 01:21:32;;;;;;;16.27;11.93;;;;;;;17.75;64.37;98073.88;695893;28;1023;-84
2023/10/20 01:21:52;;;;;;;18.25;12.50;;;;;;;17.72;64.30;98067.88;693065;28;1152;-85
2023/10/20 01:22:13;;;;;;;17.33;11.53;;;;;;;17.71;64.21;98069.69;688199;28;1286;-85
2023/10/20 01:22:34;;;;;;;14.50;10.70;;;;;;;17.74;64.30;98066.91;695710;28;1152;-85
2023/10/20 01:22:55;;;;;;;13.10;10.02;;;;;;;17.76;64.32;98066.84;698817;28;1078;-85
2023/10/20 01:23:15;;;;;;;13.05;10.02;;;;;;;17.67;64.43;98052.28;693314;28;1232;-85
2023/10/20 01:23:37;;;;;;;20.48;10.65;;;;;;;17.71;64.55;98059.13;685668;28;1280;-86
2023/10/20 01:24:01;;;;;;;20.02;10.82;;;;;;;17.73;64.43;98062.56;686002;28;1331;-85
2023/10/20 01:24:22;;;;;;;14.32;11.48;;;;;;;17.71;64.41;98053.88;690791;28;1095;-85
2023/10/20 01:24:43;;;;;;;14.63;11.53;;;;;;;17.72;64.35;98050.31;689628;28;1365;-84
2023/10/20 01:25:04;;;;;;;15.65;11.90;;;;;;;17.73;64.40;98052.00;696367;28;1348;-86
2023/10/20 01:25:26;;;;;;;14.15;11.40;;;;;;;17.72;64.39;98050.31;693562;28;1008;-85
2023/10/20 01:26:10;;;;;;;12.38;10.40;;;;;;;17.77;64.42;98056.19;688028;28;1168;-85
2023/10/20 01:26:31;;;;;;;17.88;10.82;;;;;;;17.73;64.37;98052.00;695533;28;1671;-85
2023/10/20 01:26:51;;;;;;;16.25;11.45;;;;;;;17.72;64.46;98047.66;695925;28;1104;-86
2023/10/20 01:27:12;;;;;;;17.70;11.47;;;;;;;17.81;64.35;98055.16;690642;28;1363;-86
2023/10/20 01:27:33;;;;;;;16.75;11.52;;;;;;;17.74;64.44;98044.94;690629;28;1409;-85
2023/10/20 01:27:54;;;;;;;17.02;11.70;;;;;;;17.76;64.41;98045.75;695604;28;1210;-86
2023/10/20 01:28:16;;;;;;;14.30;12.00;;;;;;;17.74;64.40;98048.44;698904;28;991;-87
2023/10/20 01:28:38;;;;;;;15.25;11.77;;;;;;;17.74;64.07;98043.16;696055;28;1224;-85
2023/10/20 01:28:59;;;;;;;14.63;11.93;;;;;;;17.75;64.22;98047.50;696362;28;781;-85
2023/10/20 01:29:20;;;;;;;14.98;11.73;;;;;;;17.75;64.26;98050.16;696283;28;1319;-85
2023/10/20 01:29:41;;;;;;;13.23;11.30;;;;;;;17.74;64.50;98048.44;698833;28;1229;-85
2023/10/20 01:30:02;;;;;;;14.27;11.18;;;;;;;17.73;64.38;98044.09;696489;28;1597;-85
2023/10/20 01:30:22;;;;;;;12.93;10.60;;;;;;;17.75;64.08;98052.78;690701;28;1173;-85
2023/10/20 01:30:43;;;;;;;14.60;11.00;;;;;;;17.75;64.42;98044.00;696249;28;1156;-87
2023/10/20 01:31:04;;;;;;;14.75;11.18;;;;;;;17.72;64.18;98044.16;698464;28;1373;-85
2023/10/20 01:31:25;;;;;;;16.57;11.73;;;;;;;17.74;64.28;98051.06;694371;28;1271;-85
2023/10/20 01:31:46;;;;;;;15.75;11.60;;;;;;;17.77;64.46;98056.19;695212;28;1365;-85
2023/10/20 01:32:07;;;;;;;13.97;11.20;;;;;;;17.73;64.55;98045.88;699249;28;1061;-85
2023/10/20 01:32:28;;;;;;;13.73;11.30;;;;;;;17.76;64.43;98048.38;693432;28;957;-85
2023/10/20 01:32:48;;;;;;;14.00;11.30;;;;;;;17.75;64.39;98047.50;698159;28;1198;-86
2023/10/20 01:33:09;;;;;;;15.57;12.00;;;;;;;17.73;64.39;98036.19;693627;28;1224;-85
2023/10/20 01:33:31;;;;;;;18.00;12.35;;;;;;;17.73;64.46;98041.47;695349;28;1251;-85
2023/10/20 01:33:52;;;;;;;18.02;12.80;;;;;;;17.76;64.50;98049.22;696060;28;1249;-85
2023/10/20 01:34:13;;;;;;;17.35;12.50;;;;;;;17.75;64.40;98039.59;690818;28;1310;-84
2023/10/20 01:34:35;;;;;;;14.60;12.03;;;;;;;17.78;64.37;98044.72;699358;28;924;-85
2023/10/20 01:34:55;;;;;;;14.43;11.93;;;;;;;17.75;64.54;98039.59;698061;28;1650;-86
2023/10/20 01:35:16;;;;;;;15.75;12.23;;;;;;;17.74;64.42;98034.38;696308;28;1093;-86
2023/10/20 01:35:37;;;;;;;15.13;11.75;;;;;;;17.75;64.21;98039.59;692796;28;1308;-85
2023/10/20 01:35:58;;;;;;;15.95;11.95;;;;;;;17.76;64.40;98035.19;693679;28;1189;-85
2023/10/20 01:36:18;;;;;;;15.37;11.77;;;;;;;17.77;64.56;98042.19;698895;28;1083;-86
2023/10/20 01:36:39;;;;;;;15.45;11.95;;;;;;;17.75;64.47;98029.06;696162;28;1311;-85
2023/10/20 01:37:02;;;;;;;16.48;11.52;;;;;;;17.77;64.49;98034.25;693234;28;1168;-85
2023/10/20 01:37:23;;;;;;;14.10;10.50;;;;;;;17.78;64.37;98028.91;695667;28;1462;-86
2023/10/20 01:37:43;;;;;;;14.50;11.10;;;;;;;17.80;64.46;98032.34;695952;28;1187;-86
2023/10/20 01:38:04;;;;;;;12.60;10.98;;;;;;;17.79;64.37;98030.63;699200;28;1264;-86
2023/10/20 01:38:24;;;;;;;14.10;11.70;;;;;;;17.79;64.52;98035.91;701741;28;895;-86
2023/10/20 01:38:45;;;;;;;14.47;12.07;;;;;;;17.81;64.49;98034.06;693315;28;1137;-85
2023/10/20 01:39:08;;;;;;;16.33;12.18;;;;;;;17.81;64.41;98034.06;696332;28;1245;-85
2023/10/20 01:39:29;;;;;;;17.30;12.32;;;;;;;17.80;64.36;98040.25;695116;28;1330;-87
2023/10/20 01:39:50;;;;;;;17.80;12.30;;;;;;;17.81;64.41;98034.06;693230;28;1254;-84
2023/10/20 01:40:12;;;;;;;16.08;12.00;;;;;;;17.79;64.33;98033.28;690841;28;1181;-85
2023/10/20 01:40:32;;;;;;;14.07;11.18;;;;;;;17.77;64.47;98034.25;693170;28;1390;-85
2023/10/20 01:40:53;;;;;;;15.75;11.40;;;;;;;17.81;64.45;98033.19;690341;28;1227;-85
2023/10/20 01:41:16;;;;;;;14.70;11.32;;;;;;;17.80;64.51;98032.34;690699;28;1411;-86
2023/10/20 01:41:36;;;;;;;14.98;11.60;;;;;;;17.79;64.64;98029.78;693179;28;1152;-85
2023/10/20 01:41:57;;;;;;;12.90;11.50;;;;;;;17.78;64.50;98028.06;693376;28;1181;-86
2023/10/20 01:42:18;;;;;;;13.52;11.38;;;;;;;17.79;64.46;98030.63;688413;28;1333;-86
2023/10/20 01:42:40;;;;;;;14.27;11.45;;;;;;;17.83;64.50;98033.13;692611;28;1383;-85
2023/10/20 01:43:01;;;;;;;14.70;11.43;;;;;;;17.77;64.59;98029.81;693734;28;806;-85
2023/10/20 01:43:22;;;;;;;14.77;12.03;;;;;;;17.80;64.44;98026.19;687906;28;1130;-86
2023/10/20 01:43:43;;;;;;;15.48;12.35;;;;;;;17.77;64.47;98021.06;688050;28;980;-86
2023/10/20 01:44:04;;;;;;;20.03;12.10;;;;;;;17.83;64.37;98030.47;688291;28;1080;-85
2023/10/20 01:44:24;;;;;;;18.77;11.73;;;;;;;17.80;64.56;98020.94;687394;28;1440;-86
2023/10/20 01:44:45;;;;;;;19.92;12.05;;;;;;;17.79;64.57;98020.09;687877;28;1456;-86
2023/10/20 01:45:07;;;;;;;16.25;12.70;;;;;;;17.82;64.54;98019.06;690606;28;1196;-85
2023/10/20 01:45:28;;;;;;;18.73;13.38;;;;;;;17.81;64.46;98018.22;690707;28;1287;-86
2023/10/20 01:45:48;;;;;;;15.70;12.38;;;;;;;17.78;64.46;98018.34;687869;28;997;-85
2023/10/20 01:46:09;;;;;;;15.60;11.90;;;;;;;17.76;64.72;98025.47;690956;28;1250;-86
2023/10/20 01:46:30;;;;;;;13.70;11.45;;;;;;;17.80;64.79;98019.16;698763;28;1175;-86
2023/10/20 01:46:50;;;;;;;18.48;12.10;;;;;;;17.87;64.59;98026.75;698462;28;951;-85
2023/10/20 01:49:41;;;;;;;16.23;12.02;;;;;;;17.92;64.44;98024.78;701765;28;699;-86
2023/10/20 01:50:02;;;;;;;15.23;12.10;;;;;;;17.87;64.37;98011.81;703945;28;1082;-86
2023/10/20 01:50:24;;;;;;;14.32;11.85;;;;;;;17.92;64.58;98019.50;704338;28;1086;-86
2023/10/20 01:50:44;;;;;;;14.80;12.32;;;;;;;17.85;64.41;98011.03;698744;28;1238;-86
2023/10/20 01:51:05;;;;;;;16.10;12.90;;;;;;;17.84;64.41;98005.81;696548;28;1132;-86